Time;durP1;ratioP1;P1;durP2;ratioP2;P2;SDS_P1;SDS_P2;PMS_P1;PMS_P2;Temp;Humidity;BMP_temperature;BMP_pressure;BME280_temperature;BME280_humidity;BME280_pressure;Samples;Min_cycle;Max_cycle;Signal;HPM_P1;HPM_P2
2021/04/30 00:01:21;;;;;;;5.60;5.00;;;7.90;87.00;;;;;;5197831;28;20033;-69
2021/04/30 00:03:53;;;;;;;5.97;4.65;;;7.90;86.50;;;;;;5198498;28;20069;-69
2021/04/30 00:06:24;;;;;;;5.85;4.25;;;7.80;86.90;;;;;;5198054;28;20072;-68
2021/04/30 00:08:56;;;;;;;5.40;4.43;;;7.80;87.10;;;;;;5198189;28;20080;-69
2021/04/30 00:11:27;;;;;;;5.13;4.50;;;7.80;87.10;;;;;;5189352;28;20518;-68
2021/04/30 00:13:59;;;;;;;5.13;4.55;;;7.70;87.10;;;;;;5198657;28;20060;-68
2021/04/30 00:16:30;;;;;;;5.05;4.30;;;7.70;86.90;;;;;;5182558;28;20075;-69
2021/04/30 00:19:02;;;;;;;6.30;4.72;;;7.80;87.50;;;;;;5198223;28;20049;-68
2021/04/30 00:21:34;;;;;;;5.68;4.85;;;7.70;87.30;;;;;;5198378;28;20103;-68
2021/04/30 00:24:06;;;;;;;6.07;4.38;;;7.60;86.90;;;;;;5198695;28;20037;-69
2021/04/30 00:26:38;;;;;;;5.13;4.47;;;7.60;87.20;;;;;;5212248;28;20775;-71
2021/04/30 00:29:10;;;;;;;5.65;4.43;;;7.60;87.00;;;;;;5198420;28;20046;-72
2021/04/30 00:31:42;;;;;;;5.68;4.80;;;7.60;87.00;;;;;;5195564;28;20045;-68
2021/04/30 00:34:14;;;;;;;5.57;4.90;;;7.50;86.90;;;;;;5214623;28;20049;-68
2021/04/30 00:36:46;;;;;;;7.20;5.65;;;7.40;86.60;;;;;;5198254;28;20732;-68
2021/04/30 00:39:17;;;;;;;8.25;5.53;;;7.40;86.40;;;;;;5199015;28;20064;-70
2021/04/30 00:41:49;;;;;;;5.88;4.88;;;7.40;86.40;;;;;;5197668;28;20056;-70
2021/04/30 00:44:20;;;;;;;6.20;5.40;;;7.30;86.60;;;;;;5195120;28;20099;-68
2021/04/30 00:46:52;;;;;;;7.00;5.57;;;7.30;86.80;;;;;;5197996;28;20042;-69
2021/04/30 00:49:23;;;;;;;8.25;5.63;;;7.30;86.60;;;;;;5202013;28;20050;-70
2021/04/30 00:51:55;;;;;;;6.18;5.32;;;7.30;86.70;;;;;;5195906;28;20065;-68
2021/04/30 00:54:26;;;;;;;6.88;5.57;;;7.30;87.00;;;;;;5195195;28;20056;-69
2021/04/30 00:56:58;;;;;;;7.18;5.47;;;7.30;87.30;;;;;;5197796;28;20391;-68
2021/04/30 00:59:29;;;;;;;8.15;5.97;;;7.40;86.60;;;;;;5198730;28;20045;-68
2021/04/30 01:02:00;;;;;;;7.45;6.43;;;7.40;86.60;;;;;;5196533;28;20053;-68
2021/04/30 01:04:33;;;;;;;6.68;5.63;;;7.40;86.00;;;;;;5198655;28;20859;-68
2021/04/30 01:07:04;;;;;;;6.95;6.18;;;7.50;86.40;;;;;;5197662;28;20153;-68
2021/04/30 01:09:35;;;;;;;8.23;6.00;;;7.50;85.70;;;;;;5198227;28;20787;-68
2021/04/30 01:12:09;;;;;;;5.78;5.10;;;7.50;86.60;;;;;;5197678;28;20512;-68
2021/04/30 01:14:41;;;;;;;6.07;5.47;;;7.50;87.70;;;;;;5200865;28;20099;-68
2021/04/30 01:17:12;;;;;;;9.00;5.82;;;7.60;87.70;;;;;;5197712;28;20123;-68
2021/04/30 01:19:44;;;;;;;5.60;5.00;;;7.60;87.50;;;;;;5212686;28;20087;-68
2021/04/30 01:22:32;;;;;;;5.68;5.07;;;7.60;87.30;;;;;;5196725;28;20137;-69
2021/04/30 01:25:05;;;;;;;6.20;5.20;;;7.60;87.10;;;;;;5196726;28;20042;-68
2021/04/30 01:27:37;;;;;;;6.03;5.22;;;7.60;87.50;;;;;;5196028;28;20197;-68
2021/04/30 01:30:27;;;;;;;7.32;6.05;;;7.60;87.70;;;;;;5197508;28;20056;-69
2021/04/30 01:32:59;;;;;;;7.95;6.47;;;7.60;86.90;;;;;;5197006;28;20644;-68
2021/04/30 01:35:34;;;;;;;6.65;5.95;;;7.50;87.00;;;;;;5197099;28;20530;-68
2021/04/30 01:38:05;;;;;;;6.68;5.97;;;7.50;86.70;;;;;;5197764;28;20053;-70
2021/04/30 01:40:37;;;;;;;6.72;6.03;;;7.60;86.40;;;;;;5197122;28;20041;-68
2021/04/30 01:43:24;;;;;;;7.07;5.57;;;7.50;87.20;;;;;;5197713;28;20069;-69
2021/04/30 01:45:59;;;;;;;5.68;5.07;;;7.50;86.80;;;;;;5196695;28;20037;-68
2021/04/30 01:48:33;;;;;;;6.30;5.40;;;7.50;86.60;;;;;;5197941;28;21000;-68
2021/04/30 01:51:05;;;;;;;7.07;5.75;;;7.60;86.60;;;;;;5197333;28;20442;-70
2021/04/30 01:53:38;;;;;;;6.22;5.63;;;7.60;86.40;;;;;;5180187;28;20390;-69
2021/04/30 01:56:11;;;;;;;6.40;5.55;;;7.60;86.40;;;;;;5196126;28;20045;-69
2021/04/30 01:58:43;;;;;;;6.78;5.50;;;7.60;85.90;;;;;;5197240;28;20041;-68
2021/04/30 02:01:14;;;;;;;6.15;5.40;;;7.70;86.00;;;;;;5199043;28;20041;-68
2021/04/30 02:03:46;;;;;;;7.65;5.13;;;7.60;85.90;;;;;;5203571;28;20038;-68
2021/04/30 02:06:17;;;;;;;7.95;5.70;;;7.60;85.60;;;;;;5200163;28;20438;-68
2021/04/30 02:08:50;;;;;;;8.00;5.70;;;7.60;85.60;;;;;;5201859;28;20506;-69
2021/04/30 02:11:22;;;;;;;6.55;5.85;;;7.50;85.60;;;;;;5200107;28;20049;-68
2021/04/30 02:13:53;;;;;;;7.60;6.32;;;7.40;85.50;;;;;;5201391;28;20183;-68
2021/04/30 02:16:25;;;;;;;10.77;6.72;;;7.40;86.20;;;;;;5200115;28;20124;-68
2021/04/30 02:18:56;;;;;;;6.85;6.15;;;7.30;85.60;;;;;;5199049;28;20045;-67
2021/04/30 02:21:28;;;;;;;8.68;6.95;;;7.20;85.70;;;;;;5199992;28;20588;-68
2021/04/30 02:24:00;;;;;;;7.55;6.25;;;7.10;86.30;;;;;;5201002;28;20127;-67
2021/04/30 02:26:32;;;;;;;8.63;6.93;;;7.10;86.50;;;;;;5200198;28;20049;-68
2021/04/30 02:29:03;;;;;;;7.20;6.28;;;7.10;86.30;;;;;;5199886;28;20149;-69
2021/04/30 02:31:35;;;;;;;8.68;6.13;;;7.20;86.80;;;;;;5200252;28;20419;-68
2021/04/30 02:34:06;;;;;;;7.63;6.20;;;7.30;86.60;;;;;;5203000;28;20049;-68
2021/04/30 02:36:37;;;;;;;7.40;6.30;;;7.30;86.10;;;;;;5199994;28;20053;-69
2021/04/30 02:39:09;;;;;;;9.38;6.28;;;7.30;86.00;;;;;;5201494;28;20044;-68
2021/04/30 02:41:40;;;;;;;6.55;5.63;;;7.40;85.50;;;;;;5197612;28;20155;-68
2021/04/30 02:44:12;;;;;;;6.80;6.10;;;7.40;86.60;;;;;;5199208;28;20076;-67
2021/04/30 02:46:43;;;;;;;6.63;5.80;;;7.50;86.40;;;;;;5199606;28;20605;-68
2021/04/30 02:49:23;;;;;;;6.47;5.50;;;7.50;85.80;;;;;;5200881;28;20565;-68
2021/04/30 02:51:54;;;;;;;6.25;5.65;;;7.60;85.40;;;;;;5182127;28;20068;-68
2021/04/30 02:54:26;;;;;;;6.10;5.47;;;7.60;85.30;;;;;;5200649;28;20045;-68
2021/04/30 02:56:57;;;;;;;6.65;5.40;;;7.60;85.80;;;;;;5190558;28;20042;-68
2021/04/30 02:59:29;;;;;;;6.25;5.43;;;7.50;85.90;;;;;;5199952;28;20695;-68
2021/04/30 03:02:02;;;;;;;6.28;5.57;;;7.50;85.60;;;;;;5214047;28;20103;-68
2021/04/30 03:04:34;;;;;;;6.13;5.50;;;7.50;85.50;;;;;;5199404;28;20042;-69
2021/04/30 03:07:06;;;;;;;9.18;6.28;;;7.60;85.80;;;;;;5199239;28;20045;-68
2021/04/30 03:09:38;;;;;;;6.70;6.00;;;7.60;85.30;;;;;;5198784;28;20064;-68
2021/04/30 03:12:09;;;;;;;6.88;6.07;;;7.60;85.60;;;;;;5201542;28;20050;-68
2021/04/30 03:14:41;;;;;;;6.38;5.78;;;7.60;85.80;;;;;;5200017;28;20764;-69
2021/04/30 03:17:12;;;;;;;7.95;6.00;;;7.40;86.20;;;;;;5199841;28;20056;-68
2021/04/30 03:19:44;;;;;;;6.03;5.43;;;7.30;86.70;;;;;;5200105;28;20037;-68
2021/04/30 03:22:15;;;;;;;6.70;5.85;;;7.30;87.00;;;;;;5198640;28;20127;-69
2021/04/30 03:24:47;;;;;;;6.85;5.50;;;7.30;86.50;;;;;;5200054;28;20045;-68
2021/04/30 03:27:18;;;;;;;8.60;5.97;;;7.40;86.10;;;;;;5199484;28;20156;-68
2021/04/30 03:29:50;;;;;;;6.53;5.85;;;7.50;85.90;;;;;;5198817;28;20045;-68
2021/04/30 03:32:22;;;;;;;6.88;6.05;;;7.50;86.10;;;;;;5197308;28;20040;-68
2021/04/30 03:34:54;;;;;;;6.78;5.78;;;7.50;86.30;;;;;;5198436;28;20047;-68
2021/04/30 03:37:26;;;;;;;6.80;6.10;;;7.40;86.80;;;;;;5199433;28;20075;-69
2021/04/30 03:39:57;;;;;;;7.05;6.35;;;7.20;87.90;;;;;;5197983;28;20072;-69
2021/04/30 03:42:29;;;;;;;7.78;6.40;;;7.10;88.10;;;;;;5215154;28;20073;-68
2021/04/30 03:45:00;;;;;;;7.07;6.38;;;7.10;87.50;;;;;;5201002;28;20576;-68
2021/04/30 03:47:32;;;;;;;7.30;6.35;;;7.20;87.10;;;;;;5202921;28;20045;-68
2021/04/30 03:50:03;;;;;;;7.57;6.13;;;7.20;87.00;;;;;;5199862;28;20144;-68
2021/04/30 03:52:35;;;;;;;7.13;5.65;;;7.10;87.80;;;;;;5199243;28;20053;-68
2021/04/30 03:55:07;;;;;;;7.40;6.60;;;7.20;87.40;;;;;;5217041;28;20045;-68
2021/04/30 03:57:38;;;;;;;6.85;6.15;;;7.10;87.40;;;;;;5200156;28;20037;-69
2021/04/30 04:00:10;;;;;;;8.48;6.70;;;7.20;87.00;;;;;;5199574;28;20087;-68
2021/04/30 04:02:47;;;;;;;7.15;6.38;;;7.20;86.90;;;;;;5198345;28;20076;-68
2021/04/30 04:05:19;;;;;;;7.80;6.35;;;7.30;86.80;;;;;;5199922;28;20041;-68
2021/04/30 04:07:50;;;;;;;7.13;6.43;;;7.40;86.20;;;;;;5199526;28;20075;-68
2021/04/30 04:10:21;;;;;;;7.40;6.65;;;7.50;85.90;;;;;;5199457;28;20081;-69
2021/04/30 04:12:53;;;;;;;7.28;6.57;;;7.50;85.60;;;;;;5199290;28;20085;-67
2021/04/30 04:15:24;;;;;;;7.88;7.07;;;7.60;85.40;;;;;;5199667;28;20061;-67
2021/04/30 04:17:56;;;;;;;7.60;6.90;;;7.60;85.40;;;;;;5203921;28;20100;-67
2021/04/30 04:20:27;;;;;;;7.75;7.05;;;7.60;85.00;;;;;;5199203;28;20569;-68
2021/04/30 04:22:59;;;;;;;7.70;7.00;;;7.60;85.00;;;;;;5199209;28;20103;-67
2021/04/30 04:25:30;;;;;;;7.60;6.90;;;7.60;85.30;;;;;;5198876;28;20045;-68
2021/04/30 04:28:03;;;;;;;7.93;6.88;;;7.60;85.20;;;;;;5198627;28;20150;-69
2021/04/30 04:30:35;;;;;;;8.30;7.38;;;7.60;85.20;;;;;;5198752;28;20045;-70
2021/04/30 04:33:06;;;;;;;7.28;6.57;;;7.60;85.10;;;;;;5199210;28;20045;-69
2021/04/30 04:35:37;;;;;;;8.18;7.38;;;7.50;85.50;;;;;;5198922;28;20077;-69
2021/04/30 04:38:09;;;;;;;7.57;6.78;;;7.50;85.70;;;;;;5188500;28;20103;-69
2021/04/30 04:40:40;;;;;;;10.23;7.40;;;7.40;85.70;;;;;;5197374;28;20519;-69
2021/04/30 04:43:12;;;;;;;8.85;7.55;;;7.50;85.90;;;;;;5199382;28;20523;-69
2021/04/30 04:45:44;;;;;;;9.75;8.75;;;7.50;85.80;;;;;;5197353;28;20448;-70
2021/04/30 04:48:15;;;;;;;11.30;9.27;;;7.50;85.50;;;;;;5198464;28;20115;-69
2021/04/30 04:50:47;;;;;;;10.57;9.40;;;7.50;85.30;;;;;;5196494;28;20049;-68
2021/04/30 04:53:26;;;;;;;11.20;9.65;;;7.60;84.90;;;;;;5218226;28;20053;-70
2021/04/30 04:56:17;;;;;;;10.63;8.93;;;7.60;85.10;;;;;;5198512;28;20631;-69
2021/04/30 04:58:49;;;;;;;9.95;8.52;;;7.60;85.40;;;;;;5195432;28;20060;-69
2021/04/30 05:01:22;;;;;;;11.75;10.23;;;7.60;85.50;;;;;;5183203;28;20060;-70
2021/04/30 05:03:53;;;;;;;12.13;9.35;;;7.50;86.20;;;;;;5196702;28;20045;-68
2021/04/30 05:06:25;;;;;;;11.13;10.00;;;7.50;86.20;;;;;;5196342;28;20081;-69
2021/04/30 05:08:56;;;;;;;10.80;9.50;;;7.60;86.00;;;;;;5179892;28;20122;-69
2021/04/30 05:11:28;;;;;;;9.25;8.25;;;7.60;85.80;;;;;;5194813;28;20045;-68
2021/04/30 05:13:59;;;;;;;9.45;8.10;;;7.70;86.20;;;;;;5198572;28;20041;-68
2021/04/30 05:16:30;;;;;;;8.07;6.85;;;7.70;86.40;;;;;;5201853;28;20045;-67
2021/04/30 05:19:02;;;;;;;8.57;6.72;;;7.70;86.60;;;;;;5197633;28;20034;-68
2021/04/30 05:21:35;;;;;;;8.40;6.80;;;7.80;86.40;;;;;;5188273;28;20091;-67
2021/04/30 05:24:10;;;;;;;8.30;7.22;;;7.90;86.70;;;;;;5198007;28;20034;-67
2021/04/30 05:26:41;;;;;;;7.95;7.13;;;8.00;86.40;;;;;;5197424;28;20046;-67
2021/04/30 05:29:15;;;;;;;11.75;8.73;;;8.10;86.00;;;;;;5196289;28;20167;-67
2021/04/30 05:31:46;;;;;;;9.13;7.75;;;8.10;85.90;;;;;;5195666;28;20065;-67
2021/04/30 05:34:18;;;;;;;9.07;6.60;;;8.20;85.40;;;;;;5200234;28;20052;-67
2021/04/30 05:36:49;;;;;;;7.43;6.70;;;8.20;85.00;;;;;;5200169;28;20411;-67
2021/04/30 05:39:21;;;;;;;8.73;7.82;;;8.20;85.40;;;;;;5190855;28;20049;-68
2021/04/30 05:41:52;;;;;;;11.65;10.15;;;8.30;85.20;;;;;;5199180;28;20068;-67
2021/04/30 05:44:23;;;;;;;9.93;8.77;;;8.30;85.40;;;;;;5201453;28;20094;-68
2021/04/30 05:46:55;;;;;;;8.70;7.90;;;8.40;85.30;;;;;;5192336;28;20112;-67
2021/04/30 05:49:27;;;;;;;7.78;6.72;;;8.40;85.30;;;;;;5216269;28;20057;-67
2021/04/30 05:51:58;;;;;;;7.88;6.57;;;8.60;85.30;;;;;;5198649;28;20065;-67
2021/04/30 05:54:31;;;;;;;8.45;6.70;;;8.60;84.70;;;;;;5201563;28;20519;-67
2021/04/30 05:57:03;;;;;;;6.75;6.00;;;8.60;84.60;;;;;;5202131;28;20049;-68
2021/04/30 05:59:34;;;;;;;8.18;6.78;;;8.60;84.50;;;;;;5201746;28;20068;-68
2021/04/30 06:02:05;;;;;;;7.10;6.40;;;8.60;85.40;;;;;;5202043;28;20048;-67
2021/04/30 06:04:38;;;;;;;7.03;6.18;;;8.70;85.00;;;;;;5201265;28;20041;-68
2021/04/30 06:07:09;;;;;;;8.20;6.40;;;8.80;84.70;;;;;;5199231;28;20049;-67
2021/04/30 06:09:41;;;;;;;6.70;6.00;;;8.80;84.50;;;;;;5201917;28;20204;-67
2021/04/30 06:12:13;;;;;;;6.78;6.07;;;8.80;84.70;;;;;;5201468;28;20838;-67
2021/04/30 06:14:46;;;;;;;5.88;5.32;;;8.80;84.50;;;;;;5201761;28;20381;-66
2021/04/30 06:17:19;;;;;;;6.10;5.40;;;8.90;83.80;;;;;;5200650;28;20064;-68
2021/04/30 06:19:51;;;;;;;6.72;5.85;;;9.00;83.90;;;;;;5215661;28;20399;-67
2021/04/30 06:22:22;;;;;;;6.20;5.60;;;9.00;83.70;;;;;;5200493;28;20118;-67
2021/04/30 06:24:53;;;;;;;6.95;5.75;;;9.10;83.10;;;;;;5199898;28;20034;-67
2021/04/30 06:27:25;;;;;;;6.88;6.18;;;9.20;82.50;;;;;;5201618;28;20479;-66
2021/04/30 06:29:56;;;;;;;6.05;5.45;;;9.30;82.40;;;;;;5200722;28;20585;-67
2021/04/30 06:32:28;;;;;;;6.55;5.95;;;9.40;82.10;;;;;;5216333;28;20060;-67
2021/04/30 06:34:59;;;;;;;6.70;6.10;;;9.60;82.30;;;;;;5201146;28;20045;-67
2021/04/30 06:37:31;;;;;;;6.20;5.60;;;9.80;82.20;;;;;;5200828;28;20482;-67
2021/04/30 06:40:04;;;;;;;6.47;5.60;;;10.00;81.60;;;;;;5200748;28;20038;-66
2021/04/30 06:42:35;;;;;;;6.47;5.88;;;10.10;81.60;;;;;;5201036;28;20073;-67
2021/04/30 06:45:08;;;;;;;7.22;6.07;;;10.20;81.10;;;;;;5199127;28;20079;-67
2021/04/30 06:47:39;;;;;;;5.95;5.35;;;10.30;80.90;;;;;;5200660;28;20057;-67
2021/04/30 06:50:11;;;;;;;6.78;6.07;;;10.30;78.40;;;;;;5199246;28;20791;-67
2021/04/30 06:52:43;;;;;;;8.82;6.53;;;10.40;76.80;;;;;;5201309;28;20069;-67
2021/04/30 06:55:14;;;;;;;6.22;5.43;;;10.60;75.50;;;;;;5199745;28;20514;-67
2021/04/30 06:57:46;;;;;;;6.03;5.38;;;10.80;77.80;;;;;;5201355;28;20443;-67
2021/04/30 07:00:17;;;;;;;6.30;5.70;;;10.90;74.60;;;;;;5191515;28;20111;-67
2021/04/30 07:02:49;;;;;;;6.63;5.95;;;11.10;72.70;;;;;;5199334;28;20526;-67
2021/04/30 07:05:20;;;;;;;6.60;5.90;;;11.30;74.80;;;;;;5200976;28;20128;-67
2021/04/30 07:07:56;;;;;;;7.18;6.00;;;11.50;75.10;;;;;;5200823;28;20056;-66
2021/04/30 07:10:31;;;;;;;7.15;5.82;;;11.60;74.50;;;;;;5200597;28;20573;-67
2021/04/30 07:13:10;;;;;;;7.32;6.53;;;11.70;75.20;;;;;;5199466;28;20049;-66
2021/04/30 07:15:41;;;;;;;8.18;5.85;;;11.70;70.70;;;;;;5199701;28;20143;-67
2021/04/30 07:18:13;;;;;;;7.00;5.95;;;11.80;71.50;;;;;;5198335;28;20507;-68
2021/04/30 07:20:47;;;;;;;6.13;5.53;;;11.90;72.00;;;;;;5217452;28;20048;-68
2021/04/30 07:23:18;;;;;;;6.32;5.72;;;12.00;71.20;;;;;;5217466;28;20710;-67
2021/04/30 07:25:50;;;;;;;6.55;5.47;;;12.10;71.90;;;;;;5200251;28;20517;-67
2021/04/30 07:28:23;;;;;;;6.50;5.90;;;12.20;69.90;;;;;;5200527;28;20038;-67
2021/04/30 07:30:55;;;;;;;6.55;5.95;;;12.30;69.50;;;;;;5197931;28;20084;-67
2021/04/30 07:33:26;;;;;;;6.57;5.80;;;12.50;72.70;;;;;;5200066;28;20099;-67
2021/04/30 07:35:58;;;;;;;6.43;5.82;;;12.60;69.30;;;;;;5200162;28;20049;-66
2021/04/30 07:38:30;;;;;;;8.63;6.38;;;12.70;69.70;;;;;;5199930;28;20048;-67
2021/04/30 07:41:01;;;;;;;6.82;5.78;;;12.80;70.50;;;;;;5197726;28;20045;-67
2021/04/30 07:43:33;;;;;;;7.40;6.22;;;13.00;70.40;;;;;;5199689;28;20048;-67
2021/04/30 07:46:05;;;;;;;6.38;5.78;;;13.10;70.50;;;;;;5199684;28;20144;-67
2021/04/30 07:48:40;;;;;;;6.70;5.97;;;13.20;68.20;;;;;;5199207;28;20045;-67
2021/04/30 07:51:12;;;;;;;7.93;6.60;;;13.40;68.80;;;;;;5198682;28;20049;-67
2021/04/30 07:53:44;;;;;;;8.90;5.85;;;13.40;69.20;;;;;;5200041;28;20045;-67
2021/04/30 07:56:15;;;;;;;7.18;5.97;;;13.50;66.50;;;;;;5199462;28;20167;-67
2021/04/30 07:58:47;;;;;;;7.95;5.68;;;13.50;67.90;;;;;;5199706;28;20056;-67
2021/04/30 08:01:18;;;;;;;7.82;6.32;;;13.60;67.60;;;;;;5176047;28;20045;-66
2021/04/30 08:03:50;;;;;;;7.32;5.75;;;13.70;68.70;;;;;;5198570;28;20048;-67
2021/04/30 08:06:21;;;;;;;6.40;5.78;;;13.80;68.30;;;;;;5192843;28;20038;-67
2021/04/30 08:08:53;;;;;;;7.20;5.68;;;13.80;67.50;;;;;;5199788;28;20058;-66
2021/04/30 08:11:24;;;;;;;6.28;5.60;;;13.80;66.70;;;;;;5175044;28;20077;-67
2021/04/30 08:13:56;;;;;;;6.47;5.88;;;13.90;66.60;;;;;;5199819;28;20046;-67
2021/04/30 08:16:28;;;;;;;6.72;6.00;;;14.00;66.20;;;;;;5193525;28;20056;-67
2021/04/30 08:19:03;;;;;;;7.18;5.88;;;14.00;65.90;;;;;;5200052;28;20065;-68
2021/04/30 08:21:35;;;;;;;6.68;5.68;;;14.10;65.10;;;;;;5198375;28;20045;-66
2021/04/30 08:24:07;;;;;;;6.82;5.78;;;14.10;65.90;;;;;;5199297;28;20037;-66
2021/04/30 08:26:39;;;;;;;6.95;5.95;;;14.20;66.30;;;;;;5198877;28;20038;-67
2021/04/30 08:29:11;;;;;;;6.50;5.80;;;14.20;65.90;;;;;;5199215;28;20822;-67
2021/04/30 08:31:43;;;;;;;6.30;5.38;;;14.20;63.20;;;;;;5198333;28;20049;-67
2021/04/30 08:34:14;;;;;;;7.50;5.97;;;14.40;65.70;;;;;;5199379;28;20049;-67
2021/04/30 08:36:45;;;;;;;6.28;5.35;;;14.60;64.40;;;;;;5198134;28;20051;-67
2021/04/30 08:39:17;;;;;;;6.72;5.65;;;14.60;64.20;;;;;;5190867;28;20029;-66
2021/04/30 08:41:49;;;;;;;6.13;5.47;;;14.70;63.60;;;;;;5185603;28;20158;-66
2021/04/30 08:44:21;;;;;;;6.25;5.30;;;14.80;61.60;;;;;;5197873;28;20507;-67
2021/04/30 08:46:54;;;;;;;6.80;4.80;;;14.60;61.40;;;;;;5191809;28;20588;-67
2021/04/30 08:49:26;;;;;;;6.78;5.53;;;14.70;61.60;;;;;;5196871;28;20045;-68
2021/04/30 08:51:57;;;;;;;6.00;5.32;;;14.80;62.60;;;;;;5181472;28;20123;-68
2021/04/30 08:54:29;;;;;;;5.80;5.20;;;14.90;60.60;;;;;;5198250;28;20048;-69
2021/04/30 08:57:10;;;;;;;6.15;5.38;;;15.00;61.30;;;;;;5197398;28;20537;-67
2021/04/30 08:59:42;;;;;;;5.80;5.20;;;15.20;62.50;;;;;;5197716;28;20643;-67
2021/04/30 09:02:14;;;;;;;7.28;5.60;;;15.30;59.00;;;;;;5197738;28;20045;-67
2021/04/30 09:04:46;;;;;;;7.28;6.07;;;15.30;59.80;;;;;;5198799;28;20559;-68
2021/04/30 09:07:20;;;;;;;6.05;5.45;;;15.40;58.40;;;;;;5197730;28;20289;-68
2021/04/30 09:10:00;;;;;;;6.88;5.47;;;15.40;58.80;;;;;;5194218;28;20060;-67
2021/04/30 09:12:32;;;;;;;7.17;5.63;;;15.50;59.90;;;;;;5195284;28;20053;-68
2021/04/30 09:15:05;;;;;;;7.35;5.93;;;15.60;61.30;;;;;;5196901;28;20053;-67
2021/04/30 09:17:36;;;;;;;7.05;6.35;;;15.80;62.50;;;;;;5193139;28;20048;-69
2021/04/30 09:20:09;;;;;;;7.35;6.43;;;15.90;61.60;;;;;;5192651;28;20030;-67
2021/04/30 09:22:42;;;;;;;6.95;6.25;;;16.10;62.00;;;;;;5197515;28;20506;-68
2021/04/30 09:25:16;;;;;;;8.80;7.40;;;15.70;62.30;;;;;;5197651;28;20049;-67
2021/04/30 09:27:50;;;;;;;7.40;6.50;;;15.80;63.20;;;;;;5192953;28;20048;-67
2021/04/30 09:30:32;;;;;;;7.45;6.75;;;15.70;63.90;;;;;;5187372;28;20127;-67
2021/04/30 09:33:12;;;;;;;7.88;7.07;;;15.90;64.00;;;;;;5195936;28;20041;-67
2021/04/30 09:35:51;;;;;;;8.15;6.97;;;16.10;63.80;;;;;;5197186;28;20050;-67
2021/04/30 09:38:29;;;;;;;8.18;7.38;;;16.30;64.10;;;;;;5193490;28;20120;-67
2021/04/30 09:41:00;;;;;;;8.55;7.70;;;16.40;61.80;;;;;;5195090;28;20040;-67
2021/04/30 09:43:44;;;;;;;8.00;7.20;;;16.10;63.90;;;;;;5194834;28;20756;-67
2021/04/30 09:46:37;;;;;;;7.82;7.03;;;16.30;64.40;;;;;;5197383;28;20815;-67
2021/04/30 09:49:15;;;;;;;8.77;7.97;;;16.40;62.90;;;;;;5196659;28;20120;-67
2021/04/30 09:51:52;;;;;;;7.75;7.00;;;16.50;62.40;;;;;;5195935;28;20048;-66
2021/04/30 09:54:31;;;;;;;7.47;6.68;;;16.40;62.60;;;;;;5195752;28;20049;-67
2021/04/30 09:57:19;;;;;;;7.93;7.10;;;16.30;63.70;;;;;;5196574;28;20052;-67
2021/04/30 09:59:59;;;;;;;7.50;6.80;;;16.30;64.10;;;;;;5197099;28;20048;-67
2021/04/30 10:02:33;;;;;;;8.27;7.35;;;16.30;63.40;;;;;;5194362;28;20764;-67
2021/04/30 10:05:23;;;;;;;8.88;8.07;;;16.40;63.30;;;;;;5196162;28;20041;-66
2021/04/30 10:08:16;;;;;;;8.93;8.07;;;16.20;63.70;;;;;;5196327;28;20050;-68
2021/04/30 10:10:48;;;;;;;8.38;7.47;;;16.40;64.00;;;;;;5195860;28;20074;-66
2021/04/30 10:13:39;;;;;;;8.38;7.68;;;16.70;63.40;;;;;;5186605;28;20120;-66
2021/04/30 10:16:11;;;;;;;8.88;8.07;;;16.90;63.40;;;;;;5197078;28;20092;-66
2021/04/30 10:18:42;;;;;;;8.27;7.47;;;17.00;61.40;;;;;;5191037;28;20045;-67
2021/04/30 10:21:16;;;;;;;8.48;7.68;;;17.00;62.70;;;;;;5196686;28;20077;-67
2021/04/30 10:23:50;;;;;;;8.57;7.68;;;17.30;62.50;;;;;;5194099;28;20577;-67
2021/04/30 10:26:21;;;;;;;8.52;7.63;;;17.50;62.00;;;;;;5199340;28;20546;-67
2021/04/30 10:28:56;;;;;;;8.82;7.90;;;17.60;60.50;;;;;;5201141;28;20091;-66
2021/04/30 10:31:35;;;;;;;8.25;7.43;;;17.70;61.10;;;;;;5196279;28;20042;-67
2021/04/30 10:34:21;;;;;;;8.45;7.65;;;17.70;61.50;;;;;;5200513;28;20037;-66
2021/04/30 10:37:02;;;;;;;8.80;8.02;;;17.80;61.60;;;;;;5199205;28;20124;-66
2021/04/30 10:39:36;;;;;;;9.30;8.43;;;17.90;60.80;;;;;;5198649;28;20423;-66
2021/04/30 10:42:13;;;;;;;9.30;8.40;;;18.00;59.90;;;;;;5199888;28;20048;-66
2021/04/30 10:44:44;;;;;;;8.93;8.02;;;18.10;59.40;;;;;;5213343;28;20037;-67
2021/04/30 10:47:18;;;;;;;9.45;8.52;;;18.20;59.50;;;;;;5198879;28;20046;-67
2021/04/30 10:50:18;;;;;;;8.35;7.60;;;18.30;60.00;;;;;;5199420;28;20033;-67
2021/04/30 10:52:54;;;;;;;8.15;7.35;;;18.40;58.80;;;;;;5199524;28;20392;-66
2021/04/30 10:55:39;;;;;;;8.73;7.93;;;18.50;60.00;;;;;;5195180;28;20132;-67
2021/04/30 10:58:33;;;;;;;8.07;7.38;;;18.80;58.10;;;;;;5197261;28;20641;-67
2021/04/30 11:01:25;;;;;;;8.43;7.28;;;18.80;57.30;;;;;;5199407;28;20041;-67
2021/04/30 11:04:09;;;;;;;7.78;7.07;;;19.00;54.20;;;;;;5198769;28;20044;-67
2021/04/30 11:06:42;;;;;;;8.45;7.65;;;18.90;55.20;;;;;;5200106;28;20034;-66
2021/04/30 11:09:31;;;;;;;8.13;7.43;;;19.00;55.70;;;;;;5198575;28;20046;-67
2021/04/30 11:12:24;;;;;;;9.20;7.97;;;19.10;56.50;;;;;;5198347;28;20180;-67
2021/04/30 11:15:10;;;;;;;8.45;7.60;;;19.20;55.10;;;;;;5198025;28;20045;-67
2021/04/30 11:17:52;;;;;;;9.48;8.68;;;19.30;55.10;;;;;;5200483;28;20054;-66
2021/04/30 11:20:32;;;;;;;9.57;8.68;;;19.40;56.40;;;;;;5198702;28;20474;-67
2021/04/30 11:23:28;;;;;;;7.32;6.63;;;19.40;53.90;;;;;;5199042;28;20144;-68
2021/04/30 11:26:07;;;;;;;7.72;7.03;;;19.60;54.30;;;;;;5199254;28;20064;-67
2021/04/30 11:28:41;;;;;;;8.15;7.45;;;19.80;54.40;;;;;;5197882;28;20621;-67
2021/04/30 11:31:25;;;;;;;7.95;7.22;;;20.00;54.40;;;;;;5202242;28;20111;-67
2021/04/30 11:34:20;;;;;;;7.75;7.05;;;20.10;52.00;;;;;;5197999;28;20052;-67
2021/04/30 11:36:56;;;;;;;7.65;6.95;;;20.30;50.30;;;;;;5197723;28;20042;-67
2021/04/30 11:39:35;;;;;;;8.10;7.40;;;20.10;52.30;;;;;;5197923;28;20052;-67
2021/04/30 11:42:09;;;;;;;7.53;6.82;;;20.30;51.30;;;;;;5196159;28;20634;-68
2021/04/30 11:44:41;;;;;;;7.57;6.88;;;20.50;50.50;;;;;;5198558;28;20049;-67
2021/04/30 11:47:17;;;;;;;7.80;7.20;;;20.50;49.20;;;;;;5196970;28;20042;-67
2021/04/30 11:50:12;;;;;;;7.95;7.25;;;20.60;49.90;;;;;;5202241;28;20151;-67
2021/04/30 11:52:45;;;;;;;8.30;7.60;;;20.70;48.50;;;;;;5198838;28;20054;-67
2021/04/30 11:55:19;;;;;;;7.80;7.20;;;20.90;49.40;;;;;;5199097;28;20711;-67
2021/04/30 11:58:00;;;;;;;7.80;7.10;;;21.20;49.40;;;;;;5199993;28;20037;-67
2021/04/30 12:00:32;;;;;;;7.43;6.72;;;21.40;45.60;;;;;;5198382;28;20037;-67
2021/04/30 12:03:08;;;;;;;7.15;6.45;;;21.50;46.30;;;;;;5214159;28;20462;-67
2021/04/30 12:05:40;;;;;;;7.55;6.32;;;21.60;48.00;;;;;;5198303;28;20073;-68
2021/04/30 12:08:11;;;;;;;7.85;7.15;;;21.70;46.10;;;;;;5198981;28;20084;-67
2021/04/30 12:10:44;;;;;;;8.00;7.30;;;21.80;47.70;;;;;;5194806;28;20041;-68
2021/04/30 12:13:20;;;;;;;8.00;7.20;;;21.80;47.20;;;;;;5199637;28;20045;-68
2021/04/30 12:15:51;;;;;;;7.05;6.45;;;21.80;47.10;;;;;;5197613;28;20103;-67
2021/04/30 12:18:31;;;;;;;7.38;6.68;;;22.00;47.70;;;;;;5197281;28;20132;-68
2021/04/30 12:21:03;;;;;;;7.60;6.90;;;22.20;45.60;;;;;;5198446;28;20041;-68
2021/04/30 12:23:36;;;;;;;8.13;7.35;;;22.30;47.20;;;;;;5198416;28;20067;-67
2021/04/30 12:26:08;;;;;;;8.38;7.68;;;22.30;45.70;;;;;;5197702;28;20605;-67
2021/04/30 12:28:40;;;;;;;8.27;7.55;;;22.40;43.70;;;;;;5192369;28;20497;-67
2021/04/30 12:31:12;;;;;;;8.00;7.30;;;22.50;44.20;;;;;;5198145;28;20294;-67
2021/04/30 12:33:49;;;;;;;7.97;7.28;;;22.70;43.80;;;;;;5198468;28;20052;-67
2021/04/30 12:36:30;;;;;;;7.50;6.90;;;22.70;44.00;;;;;;5196095;28;20048;-67
2021/04/30 12:39:11;;;;;;;7.20;6.60;;;22.30;43.80;;;;;;5196022;28;20103;-67
2021/04/30 12:41:43;;;;;;;7.50;6.90;;;21.80;45.50;;;;;;5198023;28;20049;-68
2021/04/30 12:44:15;;;;;;;8.43;7.43;;;21.60;47.60;;;;;;5198485;28;20033;-68
2021/04/30 12:46:46;;;;;;;7.45;6.85;;;21.50;47.70;;;;;;5198077;28;20826;-67
2021/04/30 12:49:18;;;;;;;7.45;6.85;;;21.40;47.70;;;;;;5192257;28;20599;-68
2021/04/30 12:51:54;;;;;;;7.53;6.93;;;21.30;46.60;;;;;;5197985;28;20038;-67
2021/04/30 12:54:33;;;;;;;7.00;6.40;;;21.30;47.50;;;;;;5198792;28;20069;-67
2021/04/30 12:57:09;;;;;;;7.35;6.75;;;21.20;46.70;;;;;;5195440;28;20049;-67
2021/04/30 13:00:00;;;;;;;7.43;6.82;;;21.30;45.60;;;;;;5198051;28;20037;-67
2021/04/30 13:02:33;;;;;;;7.28;6.68;;;21.40;46.50;;;;;;5196782;28;20115;-67
2021/04/30 13:05:05;;;;;;;7.22;6.63;;;21.40;47.00;;;;;;5197348;28;20087;-67
2021/04/30 13:07:37;;;;;;;6.88;6.28;;;21.30;46.50;;;;;;5198519;28;20049;-68
2021/04/30 13:10:09;;;;;;;7.35;6.65;;;21.20;47.10;;;;;;5198215;28;20045;-68
2021/04/30 13:12:41;;;;;;;7.70;7.00;;;20.80;47.30;;;;;;5197994;28;20049;-68
2021/04/30 13:15:23;;;;;;;7.57;6.97;;;20.70;47.50;;;;;;5196960;28;20065;-68
2021/04/30 13:17:56;;;;;;;7.38;6.70;;;20.70;47.50;;;;;;5197524;28;20046;-67
2021/04/30 13:20:35;;;;;;;7.78;7.07;;;20.60;48.60;;;;;;5197885;28;20061;-67
2021/04/30 13:23:10;;;;;;;7.72;7.13;;;20.70;49.00;;;;;;5196871;28;20843;-67
2021/04/30 13:25:56;;;;;;;7.38;6.68;;;20.80;48.70;;;;;;5195538;28;20488;-67